createdAt,value
2023-04-19T00:01:01.791Z,21.94
2023-04-19T00:02:03.769Z,21.72
2023-04-19T00:03:10.177Z,22.34
2023-04-19T00:04:12.348Z,21.96
2023-04-19T00:05:14.345Z,22.24
2023-04-19T00:06:16.902Z,22.30
2023-04-19T00:07:20.450Z,22.20
2023-04-19T00:08:22.274Z,22.31
2023-04-19T00:09:24.161Z,22.12
2023-04-19T00:10:26.597Z,22.06
2023-04-19T00:11:28.426Z,22.33
2023-04-19T00:12:30.585Z,22.00
2023-04-19T00:13:32.345Z,22.26
2023-04-19T00:14:34.185Z,22.21
2023-04-19T00:15:36.060Z,22.17
2023-04-19T00:16:38.034Z,22.30
2023-04-19T00:17:39.957Z,22.20
2023-04-19T00:18:43.074Z,22.14
2023-04-19T00:19:45.004Z,21.85
2023-04-19T00:20:48.794Z,21.93
2023-04-19T00:21:50.627Z,22.34
2023-04-19T00:22:52.475Z,22.33
2023-04-19T00:23:54.252Z,22.30
2023-04-19T00:24:56.055Z,22.27
2023-04-19T00:25:57.877Z,22.50
2023-04-19T00:26:59.812Z,22.74
2023-04-19T00:28:01.688Z,22.45
2023-04-19T00:29:03.458Z,22.21
2023-04-19T00:30:05.935Z,22.08
2023-04-19T00:31:07.767Z,22.48
2023-04-19T00:32:09.621Z,22.69
2023-04-19T00:33:13.174Z,22.40
2023-04-19T00:34:15.331Z,22.13
2023-04-19T00:35:17.534Z,22.30
2023-04-19T00:36:19.438Z,22.35
2023-04-19T00:37:22.293Z,22.11
2023-04-19T00:38:24.310Z,22.25
2023-04-19T00:39:26.318Z,22.36
2023-04-19T00:40:28.432Z,22.28
2023-04-19T00:41:30.273Z,22.52
2023-04-19T00:42:32.539Z,22.09
2023-04-19T00:43:34.659Z,22.00
2023-04-19T00:44:36.511Z,22.85
2023-04-19T00:45:38.638Z,22.79
2023-04-19T00:46:40.930Z,22.56
2023-04-19T00:47:43.540Z,22.41
2023-04-19T00:48:47.231Z,22.35
2023-04-19T00:49:49.073Z,22.33
2023-04-19T00:50:51.681Z,22.09
2023-04-19T00:51:54.395Z,22.39
2023-04-19T00:52:56.695Z,22.09
2023-04-19T00:54:00.564Z,22.38
2023-04-19T00:55:03.075Z,22.12
2023-04-19T00:56:05.927Z,22.00
2023-04-19T00:57:07.795Z,21.97
2023-04-19T00:58:10.180Z,22.45
2023-04-19T00:59:14.671Z,22.57
2023-04-19T01:00:16.813Z,22.71
2023-04-19T01:01:19.831Z,22.57
2023-04-19T01:02:24.045Z,22.33
2023-04-19T01:03:27.832Z,22.64
2023-04-19T01:04:30.106Z,22.86
2023-04-19T01:05:32.058Z,22.53
2023-04-19T01:06:35.849Z,22.10
2023-04-19T01:07:37.998Z,22.51
2023-04-19T01:08:41.026Z,22.07
2023-04-19T01:09:46.889Z,22.27
2023-04-19T01:10:48.856Z,22.70
2023-04-19T01:11:51.216Z,22.60
2023-04-19T01:12:53.155Z,22.25
2023-04-19T01:13:58.625Z,22.62
2023-04-19T01:15:00.440Z,22.71
2023-04-19T01:16:02.272Z,22.35
2023-04-19T01:17:04.160Z,22.20
2023-04-19T01:18:06.660Z,22.71
2023-04-19T01:19:08.705Z,22.21
2023-04-19T01:20:11.654Z,22.40
2023-04-19T01:21:13.464Z,22.82
2023-04-19T01:22:19.266Z,22.50
2023-04-19T01:23:21.365Z,22.61
2023-04-19T01:24:24.420Z,22.40
2023-04-19T01:25:26.992Z,22.39
2023-04-19T01:26:29.007Z,21.94
2023-04-19T01:27:31.110Z,22.64
2023-04-19T01:28:33.309Z,22.17
2023-04-19T01:29:35.095Z,22.22
2023-04-19T01:30:37.172Z,22.27
2023-04-19T01:31:39.168Z,22.78
2023-04-19T01:32:41.347Z,22.48
2023-04-19T01:33:43.163Z,22.59
2023-04-19T01:34:44.986Z,22.12
2023-04-19T01:35:47.595Z,22.16
2023-04-19T01:36:49.577Z,22.03
2023-04-19T01:37:53.272Z,22.18
2023-04-19T01:38:56.440Z,22.44
2023-04-19T01:39:58.236Z,22.63
2023-04-19T01:41:00.098Z,22.30
2023-04-19T01:42:03.019Z,22.57
2023-04-19T01:43:04.962Z,22.34
2023-04-19T01:44:06.935Z,22.72
2023-04-19T01:45:09.336Z,22.09
2023-04-19T01:46:11.329Z,22.66
2023-04-19T01:47:14.512Z,22.24
2023-04-19T01:48:16.388Z,22.54
2023-04-19T01:49:18.360Z,22.09
2023-04-19T01:50:20.235Z,22.39
2023-04-19T01:51:22.126Z,22.62
2023-04-19T01:52:23.994Z,22.35
2023-04-19T01:53:25.888Z,22.26
2023-04-19T01:54:27.670Z,22.26
2023-04-19T01:55:29.723Z,22.93
2023-04-19T01:56:33.065Z,22.74
2023-04-19T01:57:35.084Z,22.60
2023-04-19T01:58:36.888Z,22.68
2023-04-19T01:59:38.788Z,22.85
2023-04-19T02:00:41.038Z,22.13
2023-04-19T02:01:42.857Z,22.23
2023-04-19T02:02:45.193Z,22.38
2023-04-19T02:03:47.327Z,22.54
2023-04-19T02:04:49.805Z,22.42
2023-04-19T02:05:51.603Z,22.42
2023-04-19T02:06:56.907Z,22.49
2023-04-19T02:07:58.853Z,22.85
2023-04-19T02:09:04.277Z,22.35
2023-04-19T02:10:06.809Z,22.30
2023-04-19T02:11:10.505Z,22.72
2023-04-19T02:12:12.414Z,22.58
2023-04-19T02:13:14.253Z,22.11
2023-04-19T02:14:16.522Z,22.43
2023-04-19T02:15:18.529Z,22.33
2023-04-19T02:16:20.412Z,22.08
2023-04-19T02:17:22.333Z,22.64
2023-04-19T02:18:26.514Z,22.80
2023-04-19T02:19:28.540Z,22.11
2023-04-19T02:20:31.307Z,22.64
2023-04-19T02:21:33.135Z,22.98
2023-04-19T02:22:34.984Z,22.49
2023-04-19T02:23:37.021Z,22.70
2023-04-19T02:24:38.893Z,22.77
2023-04-19T02:25:40.727Z,22.34
2023-04-19T02:26:42.685Z,22.94
2023-04-19T02:27:44.458Z,22.71
2023-04-19T02:28:46.242Z,22.23
2023-04-19T02:29:48.069Z,22.38
2023-04-19T02:30:49.920Z,22.67
2023-04-19T02:31:51.920Z,22.70
2023-04-19T02:32:55.080Z,22.89
2023-04-19T02:33:56.969Z,22.34
2023-04-19T02:34:58.805Z,22.75
2023-04-19T02:36:00.714Z,22.28
2023-04-19T02:37:03.573Z,22.63
2023-04-19T02:38:05.470Z,22.46
2023-04-19T02:39:07.446Z,22.25
2023-04-19T02:40:12.182Z,22.58
2023-04-19T02:41:13.958Z,22.53
2023-04-19T02:42:15.820Z,22.16
2023-04-19T02:43:17.716Z,22.35
2023-04-19T02:44:19.838Z,22.62
2023-04-19T02:45:21.902Z,22.44
2023-04-19T02:46:23.748Z,22.90
2023-04-19T02:47:25.589Z,22.49
2023-04-19T02:48:27.448Z,22.59
2023-04-19T02:49:33.194Z,22.49
2023-04-19T02:50:38.648Z,22.60
2023-04-19T02:51:40.764Z,22.30
2023-04-19T02:52:42.618Z,22.34
2023-04-19T02:53:44.531Z,22.44
2023-04-19T02:54:46.355Z,22.40
2023-04-19T02:55:48.254Z,22.40
2023-04-19T02:56:53.375Z,22.43
2023-04-19T02:57:55.449Z,22.88
2023-04-19T02:59:01.055Z,23.01
2023-04-19T03:00:05.522Z,22.63
2023-04-19T03:01:10.165Z,22.49
2023-04-19T03:02:12.091Z,22.75
2023-04-19T03:03:16.152Z,22.05
2023-04-19T03:04:18.321Z,22.46
2023-04-19T03:05:20.429Z,22.38
2023-04-19T03:06:22.307Z,22.17
2023-04-19T03:07:24.189Z,22.30
2023-04-19T03:08:26.177Z,22.51
2023-04-19T03:09:28.090Z,22.61
2023-04-19T03:10:29.898Z,22.35
2023-04-19T03:11:31.696Z,22.16
2023-04-19T03:12:34.055Z,22.84
2023-04-19T03:13:35.962Z,22.19
2023-04-19T03:14:38.526Z,22.70
2023-04-19T03:15:40.670Z,22.62
2023-04-19T03:16:43.118Z,22.33
2023-04-19T03:17:45.329Z,22.67
2023-04-19T03:18:49.333Z,22.70
2023-04-19T03:19:54.059Z,22.89
2023-04-19T03:20:56.670Z,22.08
2023-04-19T03:21:59.948Z,22.35
2023-04-19T03:23:02.486Z,22.43
2023-04-19T03:24:05.348Z,23.11
2023-04-19T03:25:08.581Z,22.65
2023-04-19T03:26:10.628Z,22.61
2023-04-19T03:27:21.858Z,22.28
2023-04-19T03:28:29.068Z,22.60
2023-04-19T03:30:08.798Z,22.49
2023-04-19T03:31:11.101Z,22.11
2023-04-19T03:32:14.053Z,22.64
2023-04-19T03:33:17.495Z,22.26
2023-04-19T03:34:19.520Z,22.27
2023-04-19T03:35:26.304Z,22.36
2023-04-19T03:36:31.494Z,22.11
2023-04-19T03:37:33.327Z,22.55
2023-04-19T03:38:35.349Z,22.51
2023-04-19T03:39:37.821Z,22.44
2023-04-19T03:40:43.531Z,22.25
2023-04-19T03:41:48.923Z,22.49
2023-04-19T03:43:07.743Z,22.85
2023-04-19T03:44:10.472Z,22.64
2023-04-19T03:45:14.137Z,23.12
2023-04-19T03:46:21.464Z,22.77
2023-04-19T03:47:24.551Z,22.65
2023-04-19T03:48:30.990Z,22.53
2023-04-19T03:49:32.811Z,22.62
2023-04-19T03:50:39.808Z,23.04
2023-04-19T03:51:42.800Z,22.54
2023-04-19T03:52:44.639Z,22.46
2023-04-19T03:53:49.005Z,22.57
2023-04-19T03:54:53.229Z,22.76
2023-04-19T03:56:08.919Z,22.59
2023-04-19T03:57:13.443Z,22.29
2023-04-19T03:58:16.349Z,22.62
2023-04-19T03:59:28.211Z,22.66
2023-04-19T04:00:31.334Z,22.86
2023-04-19T04:01:35.797Z,22.68
2023-04-19T04:02:39.411Z,22.71
2023-04-19T04:03:42.083Z,22.70
2023-04-19T04:04:44.471Z,22.84
2023-04-19T04:05:46.699Z,22.78
2023-04-19T04:06:48.674Z,22.77
2023-04-19T04:07:52.124Z,22.71
2023-04-19T04:08:54.254Z,22.14
2023-04-19T04:09:56.156Z,22.47
2023-04-19T04:10:58.051Z,22.59
2023-04-19T04:12:00.357Z,22.21
2023-04-19T04:13:02.485Z,22.67
2023-04-19T04:14:17.093Z,22.40
2023-04-19T04:15:19.258Z,22.50
2023-04-19T04:16:25.593Z,22.69
2023-04-19T04:17:28.928Z,22.91
2023-04-19T04:18:30.960Z,22.39
2023-04-19T04:19:33.262Z,22.72
2023-04-19T04:20:35.419Z,22.89
2023-04-19T04:21:41.763Z,22.49
2023-04-19T04:22:46.197Z,22.62
2023-04-19T04:23:50.523Z,22.34
2023-04-19T04:25:10.750Z,22.42
2023-04-19T04:26:14.078Z,22.78
2023-04-19T04:27:36.018Z,22.31
2023-04-19T04:28:38.917Z,22.23
2023-04-19T04:29:41.505Z,22.51
2023-04-19T04:30:46.100Z,22.43
2023-04-19T04:31:48.260Z,22.36
2023-04-19T04:32:53.226Z,22.53
2023-04-19T04:33:55.437Z,22.33
2023-04-19T04:34:57.518Z,22.58
2023-04-19T04:36:12.096Z,22.09
2023-04-19T04:37:16.332Z,22.88
2023-04-19T04:38:24.773Z,22.25
2023-04-19T04:39:29.967Z,22.65
2023-04-19T04:40:32.015Z,22.53
2023-04-19T04:41:36.054Z,22.88
2023-04-19T04:42:39.104Z,22.70
2023-04-19T04:43:41.559Z,22.22
2023-04-19T04:44:45.054Z,22.44
2023-04-19T04:45:47.234Z,22.31
2023-04-19T04:46:49.178Z,22.72
2023-04-19T04:47:56.390Z,22.57
2023-04-19T04:48:58.321Z,22.51
2023-04-19T04:50:01.065Z,22.87
2023-04-19T04:51:03.192Z,22.54
2023-04-19T04:52:06.680Z,22.52
2023-04-19T04:53:14.521Z,22.32
2023-04-19T04:54:18.659Z,22.39
2023-04-19T04:55:22.108Z,22.62
2023-04-19T04:56:24.111Z,22.81
2023-04-19T04:57:25.930Z,22.64
2023-04-19T04:58:27.871Z,22.14
2023-04-19T04:59:37.427Z,22.13
2023-04-19T05:00:39.617Z,22.45
2023-04-19T05:01:43.887Z,22.43
2023-04-19T05:02:46.532Z,23.02
2023-04-19T05:03:49.296Z,22.09
2023-04-19T05:04:53.966Z,22.47
2023-04-19T05:05:56.415Z,22.44
2023-04-19T05:06:59.408Z,22.48
2023-04-19T05:08:02.893Z,22.68
2023-04-19T05:09:05.386Z,22.25
2023-04-19T05:10:11.401Z,22.60
2023-04-19T05:11:21.192Z,22.28
2023-04-19T05:12:23.479Z,22.28
2023-04-19T05:13:25.898Z,22.29
2023-04-19T05:14:27.757Z,22.64
2023-04-19T05:15:29.901Z,22.37
2023-04-19T05:16:33.565Z,22.19
2023-04-19T05:17:35.783Z,22.15
2023-04-19T05:18:37.787Z,21.97
2023-04-19T05:19:40.633Z,21.94
2023-04-19T05:20:43.901Z,22.10
2023-04-19T05:21:52.293Z,21.73
2023-04-19T05:22:58.538Z,22.32
2023-04-19T05:24:00.584Z,22.16
2023-04-19T05:25:02.464Z,21.78
2023-04-19T05:26:04.544Z,22.16
2023-04-19T05:27:06.943Z,21.60
2023-04-19T05:28:09.204Z,21.83
2023-04-19T05:29:27.849Z,21.59
2023-04-19T05:30:30.856Z,21.34
2023-04-19T05:31:33.016Z,21.84
2023-04-19T05:32:46.220Z,21.46
2023-04-19T05:33:49.621Z,21.49
2023-04-19T05:34:51.461Z,21.17
2023-04-19T05:35:53.665Z,21.45
2023-04-19T05:36:55.906Z,20.91
2023-04-19T05:37:57.802Z,21.15
2023-04-19T05:38:59.686Z,21.21
2023-04-19T05:40:01.611Z,21.36
2023-04-19T05:41:05.837Z,20.98
2023-04-19T05:42:07.754Z,20.67
2023-04-19T05:43:10.032Z,20.85
2023-04-19T05:44:11.837Z,21.10
2023-04-19T05:45:15.728Z,21.06
2023-04-19T05:46:17.898Z,20.90
2023-04-19T05:47:19.905Z,20.81
2023-04-19T05:48:38.046Z,21.18
2023-04-19T05:50:00.304Z,21.29
2023-04-19T05:51:24.872Z,20.83
2023-04-19T05:52:41.550Z,21.15
2023-04-19T05:53:43.557Z,21.06
2023-04-19T05:54:45.777Z,20.78
2023-04-19T05:55:49.475Z,21.29
2023-04-19T05:56:51.541Z,20.69
2023-04-19T05:57:53.413Z,20.73
2023-04-19T05:59:02.348Z,20.80
2023-04-19T06:00:05.293Z,21.03
2023-04-19T06:01:19.685Z,21.17
2023-04-19T06:02:22.139Z,20.67
2023-04-19T06:03:25.271Z,20.69
2023-04-19T06:04:28.633Z,20.90
2023-04-19T06:05:30.710Z,20.70
2023-04-19T06:06:32.647Z,21.06
2023-04-19T06:07:40.210Z,20.79
2023-04-19T06:08:45.938Z,20.73
2023-04-19T06:09:47.711Z,20.94
2023-04-19T06:10:54.700Z,21.03
2023-04-19T06:11:59.328Z,20.72
2023-04-19T06:13:01.299Z,20.93
2023-04-19T06:14:03.114Z,20.60
2023-04-19T06:15:05.888Z,20.78
2023-04-19T06:16:09.309Z,20.78
2023-04-19T06:17:11.349Z,20.77
2023-04-19T06:18:19.062Z,21.13
2023-04-19T06:19:21.763Z,20.70
2023-04-19T06:20:23.535Z,20.75
2023-04-19T06:21:25.509Z,21.20
2023-04-19T06:22:27.619Z,20.58
2023-04-19T06:23:29.378Z,20.78
2023-04-19T06:24:31.478Z,20.64
2023-04-19T06:25:33.944Z,20.90
2023-04-19T06:26:35.904Z,20.73
2023-04-19T06:27:37.848Z,21.00
2023-04-19T06:28:39.624Z,20.55
2023-04-19T06:29:41.526Z,20.86
2023-04-19T06:30:43.437Z,20.91
2023-04-19T06:31:46.306Z,21.19
2023-04-19T06:32:48.298Z,20.67
2023-04-19T06:33:50.860Z,21.03
2023-04-19T06:34:52.780Z,20.51
2023-04-19T06:35:54.627Z,20.53
2023-04-19T06:36:56.924Z,21.21
2023-04-19T06:38:01.758Z,20.61
2023-04-19T06:39:04.127Z,20.71
2023-04-19T06:40:08.266Z,20.70
2023-04-19T06:41:10.517Z,20.59
2023-04-19T06:42:12.551Z,21.16
2023-04-19T06:43:14.526Z,20.73
2023-04-19T06:44:16.532Z,21.31
2023-04-19T06:45:18.469Z,21.00
2023-04-19T06:46:20.400Z,21.08
2023-04-19T06:47:22.212Z,20.82
2023-04-19T06:48:23.984Z,20.70
2023-04-19T06:49:25.789Z,20.84
2023-04-19T06:50:27.796Z,20.62
2023-04-19T06:51:29.675Z,21.25
2023-04-19T06:52:31.516Z,20.90
2023-04-19T06:53:33.509Z,20.82
2023-04-19T06:54:35.495Z,20.92
2023-04-19T06:55:37.265Z,20.78
2023-04-19T06:56:49.909Z,20.96
2023-04-19T06:57:51.802Z,20.52
2023-04-19T06:58:53.565Z,20.76
2023-04-19T06:59:55.829Z,20.90
2023-04-19T07:00:57.645Z,20.84
2023-04-19T07:01:59.612Z,20.50
2023-04-19T07:03:01.775Z,21.10
2023-04-19T07:04:04.299Z,21.04
2023-04-19T07:05:08.516Z,20.67
2023-04-19T07:06:10.604Z,20.79
2023-04-19T07:07:12.461Z,20.74
2023-04-19T07:08:14.459Z,20.69
2023-04-19T07:09:16.377Z,20.50
2023-04-19T07:10:18.398Z,20.82
2023-04-19T07:11:21.929Z,20.57
2023-04-19T07:12:24.415Z,20.59
2023-04-19T07:13:26.488Z,20.93
2023-04-19T07:14:28.341Z,21.17
2023-04-19T07:15:30.344Z,20.77
2023-04-19T07:16:33.089Z,20.56
2023-04-19T07:17:36.724Z,20.73
2023-04-19T07:18:38.589Z,20.56
2023-04-19T07:19:40.512Z,20.50
2023-04-19T07:20:45.085Z,21.06
2023-04-19T07:21:46.920Z,21.07
2023-04-19T07:22:48.723Z,21.03
2023-04-19T07:23:50.679Z,20.64
2023-04-19T07:24:54.097Z,20.59
2023-04-19T07:25:55.884Z,20.74
2023-04-19T07:26:57.837Z,21.27
2023-04-19T07:27:59.599Z,20.91
2023-04-19T07:29:01.470Z,20.56
2023-04-19T07:30:03.639Z,20.56
2023-04-19T07:31:05.642Z,20.22
2023-04-19T07:32:07.480Z,20.60
2023-04-19T07:33:09.372Z,20.12
2023-04-19T07:34:11.199Z,19.94
2023-04-19T07:35:13.092Z,20.03
2023-04-19T07:36:15.010Z,20.48
2023-04-19T07:37:16.784Z,20.56
2023-04-19T07:38:19.276Z,20.15
2023-04-19T07:39:21.201Z,20.06
2023-04-19T07:40:23.062Z,20.46
2023-04-19T07:41:24.908Z,20.31
2023-04-19T07:42:26.742Z,20.14
2023-04-19T07:43:30.342Z,19.89
2023-04-19T07:44:32.478Z,20.13
2023-04-19T07:45:34.279Z,20.42
2023-04-19T07:46:36.239Z,20.09
2023-04-19T07:47:38.305Z,19.92
2023-04-19T07:48:40.434Z,19.79
2023-04-19T07:49:44.385Z,20.13
2023-04-19T07:50:46.151Z,20.50
2023-04-19T07:51:48.083Z,20.06
2023-04-19T07:52:49.874Z,20.05
2023-04-19T07:53:51.781Z,19.71
2023-04-19T07:54:53.608Z,19.78
2023-04-19T07:55:55.393Z,19.70
2023-04-19T07:56:59.146Z,19.61
2023-04-19T07:58:01.785Z,20.32
2023-04-19T07:59:08.141Z,19.86
2023-04-19T08:00:11.613Z,19.91
2023-04-19T08:01:19.310Z,19.89
2023-04-19T08:02:21.361Z,19.94
2023-04-19T08:03:23.370Z,20.50
2023-04-19T08:04:25.968Z,20.33
2023-04-19T08:05:28.443Z,20.15
2023-04-19T08:06:30.850Z,20.15
2023-04-19T08:07:32.836Z,20.27
2023-04-19T08:08:35.475Z,20.38
2023-04-19T08:09:37.953Z,19.67
2023-04-19T08:10:39.844Z,20.08
2023-04-19T08:11:43.193Z,20.47
2023-04-19T08:12:57.417Z,20.47
2023-04-19T08:14:12.046Z,20.27
2023-04-19T08:16:05.221Z,20.39
2023-04-19T08:17:50.679Z,19.94
2023-04-19T08:18:52.914Z,20.49
2023-04-19T08:19:54.864Z,20.27
2023-04-19T08:20:56.840Z,19.95
2023-04-19T08:21:58.899Z,20.58
2023-04-19T08:23:07.516Z,20.46
2023-04-19T08:24:16.321Z,20.63
2023-04-19T08:25:18.406Z,20.33
2023-04-19T08:26:20.332Z,20.38
2023-04-19T08:27:22.631Z,20.42
2023-04-19T08:28:24.609Z,19.79
2023-04-19T08:29:26.589Z,19.83
2023-04-19T08:30:28.382Z,20.20
2023-04-19T08:31:30.210Z,20.28
2023-04-19T08:32:32.176Z,20.22
2023-04-19T08:33:34.127Z,20.11
2023-04-19T08:34:37.173Z,19.71
2023-04-19T08:35:41.481Z,20.29
2023-04-19T08:36:51.913Z,19.72
2023-04-19T08:38:03.335Z,19.55
2023-04-19T08:39:14.721Z,19.91
2023-04-19T08:40:17.339Z,19.63
2023-04-19T08:41:19.709Z,20.04
2023-04-19T08:42:33.220Z,19.91
2023-04-19T08:43:40.466Z,19.67
2023-04-19T08:44:59.622Z,19.94
2023-04-19T08:46:08.819Z,19.76
2023-04-19T08:47:20.224Z,19.99
2023-04-19T08:48:30.247Z,20.40
2023-04-19T08:49:36.793Z,20.13
2023-04-19T08:51:51.334Z,19.99
2023-04-19T08:52:58.770Z,20.13
2023-04-19T08:54:05.863Z,19.86
2023-04-19T08:55:08.810Z,19.55
2023-04-19T08:56:23.985Z,19.71
2023-04-19T08:57:26.171Z,19.89
2023-04-19T08:58:45.770Z,19.71
2023-04-19T08:59:55.759Z,19.99
2023-04-19T09:00:58.747Z,20.00
2023-04-19T09:02:04.123Z,20.01
2023-04-19T09:03:09.162Z,19.66
2023-04-19T09:04:34.413Z,19.64
2023-04-19T09:05:33.379Z,19.85
2023-04-19T09:06:39.154Z,20.10
2023-04-19T09:07:42.397Z,19.70
2023-04-19T09:08:44.243Z,19.65
2023-04-19T09:10:04.700Z,19.83
2023-04-19T09:11:07.140Z,19.82
2023-04-19T09:12:18.369Z,19.67
2023-04-19T09:13:20.430Z,20.13
2023-04-19T09:14:23.268Z,20.03
2023-04-19T09:15:39.619Z,20.26
2023-04-19T09:16:42.409Z,20.39
2023-04-19T09:17:45.132Z,20.07
2023-04-19T09:19:22.373Z,20.02
2023-04-19T09:20:39.524Z,19.95
2023-04-19T09:21:41.373Z,20.04
2023-04-19T09:22:43.202Z,19.67
2023-04-19T09:23:48.353Z,19.91
2023-04-19T09:26:22.143Z,19.88
2023-04-19T09:27:32.574Z,19.53
2023-04-19T09:28:34.407Z,20.22
2023-04-19T09:29:36.363Z,19.69
2023-04-19T09:30:50.195Z,19.88
2023-04-19T09:32:00.599Z,19.93
2023-04-19T09:33:02.614Z,19.98
2023-04-19T09:34:19.312Z,20.16
2023-04-19T09:35:21.309Z,19.69
2023-04-19T09:36:31.993Z,19.33
2023-04-19T09:38:48.941Z,19.73
2023-04-19T09:39:51.538Z,19.98
2023-04-19T09:41:05.670Z,19.91
2023-04-19T09:42:07.476Z,19.51
2023-04-19T09:43:36.461Z,19.32
2023-04-19T09:45:12.642Z,19.26
2023-04-19T09:45:55.059Z,19.30
2023-04-19T09:46:57.039Z,19.21
2023-04-19T09:48:09.923Z,19.78
2023-04-19T09:49:33.756Z,19.75
2023-04-19T09:50:59.722Z,19.81
2023-04-19T09:52:03.757Z,19.16
2023-04-19T09:53:06.658Z,19.45
2023-04-19T09:54:13.004Z,19.49
2023-04-19T09:55:26.709Z,19.58
2023-04-19T09:56:30.255Z,19.11
2023-04-19T09:57:33.406Z,19.36
2023-04-19T09:58:46.835Z,19.40
2023-04-19T09:59:51.688Z,19.50
2023-04-19T10:01:02.777Z,19.10
2023-04-19T10:02:15.018Z,19.49
2023-04-19T10:03:18.255Z,19.55
2023-04-19T10:04:37.742Z,19.09
2023-04-19T10:05:46.536Z,19.35
2023-04-19T10:07:19.284Z,19.82
2023-04-19T10:08:16.007Z,19.22
2023-04-19T10:09:19.363Z,19.66
2023-04-19T10:10:30.234Z,19.60
2023-04-19T10:11:40.207Z,19.48
2023-04-19T10:12:59.056Z,19.57
2023-04-19T10:14:06.587Z,19.67
2023-04-19T10:15:10.794Z,19.54
2023-04-19T10:16:19.543Z,19.74
2023-04-19T10:17:23.907Z,19.18
2023-04-19T10:18:26.295Z,19.38
2023-04-19T10:19:29.309Z,19.86
2023-04-19T10:20:39.853Z,19.18
2023-04-19T10:21:43.455Z,19.61
2023-04-19T10:22:45.486Z,19.32
2023-04-19T10:23:48.239Z,19.50
2023-04-19T10:25:13.523Z,20.14
2023-04-19T10:26:15.370Z,19.29
2023-04-19T10:27:17.133Z,19.41
2023-04-19T10:28:18.988Z,19.33
2023-04-19T10:29:51.738Z,20.11
2023-04-19T10:31:04.280Z,19.49
2023-04-19T10:32:06.656Z,19.66
2023-04-19T10:33:08.593Z,19.48
2023-04-19T10:34:12.801Z,19.98
2023-04-19T10:35:41.957Z,20.16
2023-04-19T10:36:44.618Z,19.87
2023-04-19T10:38:16.578Z,19.68
2023-04-19T10:39:42.250Z,20.14
2023-04-19T10:40:55.193Z,19.78
2023-04-19T10:41:59.558Z,19.85
2023-04-19T10:43:13.731Z,20.21
2023-04-19T10:44:15.512Z,19.87
2023-04-19T10:45:34.715Z,19.64
2023-04-19T10:46:40.213Z,19.78
2023-04-19T10:47:46.037Z,19.56
2023-04-19T10:48:55.000Z,19.76
2023-04-19T10:49:57.002Z,19.76
2023-04-19T10:51:07.429Z,19.42
2023-04-19T10:52:27.631Z,20.19
2023-04-19T10:53:56.042Z,19.51
2023-04-19T10:54:57.824Z,19.33
2023-04-19T10:55:59.604Z,19.66
2023-04-19T10:57:11.652Z,20.27
2023-04-19T10:58:13.737Z,20.20
2023-04-19T10:59:22.166Z,19.85
2023-04-19T11:00:26.214Z,20.12
2023-04-19T11:01:34.900Z,19.80
2023-04-19T11:02:36.932Z,20.20
2023-04-19T11:03:44.642Z,19.56
2023-04-19T11:04:49.759Z,19.53
2023-04-19T11:06:21.392Z,19.32
2023-04-19T11:07:24.999Z,20.05
2023-04-19T11:08:27.030Z,19.60
2023-04-19T11:09:42.414Z,20.24
2023-04-19T11:10:44.228Z,20.02
2023-04-19T11:11:46.071Z,19.76
2023-04-19T11:12:47.877Z,19.89
2023-04-19T11:13:50.273Z,19.86
2023-04-19T11:14:54.609Z,19.81
2023-04-19T11:15:59.374Z,20.08
2023-04-19T11:17:04.333Z,19.73
2023-04-19T11:18:12.459Z,19.77
2023-04-19T11:19:19.202Z,20.33
2023-04-19T11:20:24.282Z,19.77
2023-04-19T11:21:30.297Z,20.22
2023-04-19T11:22:36.179Z,20.12
2023-04-19T11:23:38.120Z,19.95
2023-04-19T11:24:46.249Z,19.97
2023-04-19T11:25:51.861Z,19.97
2023-04-19T11:26:56.003Z,20.16
2023-04-19T11:27:57.828Z,20.38
2023-04-19T11:29:00.540Z,20.50
2023-04-19T11:30:13.233Z,20.16
2023-04-19T11:31:15.050Z,20.49
2023-04-19T11:32:16.913Z,20.15
2023-04-19T11:33:24.918Z,20.41
2023-04-19T11:34:26.692Z,20.13
2023-04-19T11:35:30.615Z,20.48
2023-04-19T11:36:32.602Z,20.13
2023-04-19T11:37:38.881Z,20.17
2023-04-19T11:38:40.748Z,20.15
2023-04-19T11:39:47.423Z,19.92
2023-04-19T11:40:59.088Z,20.16
2023-04-19T11:42:00.876Z,20.18
2023-04-19T11:43:05.054Z,19.66
2023-04-19T11:44:27.129Z,20.21
2023-04-19T11:45:33.062Z,19.98
2023-04-19T11:46:36.563Z,20.29
2023-04-19T11:47:51.159Z,20.25
2023-04-19T11:48:54.354Z,20.23
2023-04-19T11:49:56.638Z,19.97
2023-04-19T11:50:59.433Z,19.50
2023-04-19T11:52:05.709Z,20.00
2023-04-19T11:53:12.005Z,19.70
2023-04-19T11:54:16.943Z,19.91
2023-04-19T11:55:19.429Z,19.97
2023-04-19T11:56:21.428Z,20.48
2023-04-19T11:57:32.227Z,20.33
2023-04-19T11:58:45.450Z,20.10
2023-04-19T12:00:07.814Z,19.79
2023-04-19T12:01:20.659Z,20.27
2023-04-19T12:02:22.801Z,20.16
2023-04-19T12:03:26.524Z,19.73
2023-04-19T12:04:29.040Z,20.42
2023-04-19T12:05:31.388Z,19.62
2023-04-19T12:06:33.255Z,19.66
2023-04-19T12:07:35.078Z,19.58
2023-04-19T12:08:38.863Z,19.65
2023-04-19T12:09:40.628Z,20.26
2023-04-19T12:10:56.242Z,19.88
2023-04-19T12:11:58.477Z,20.35
2023-04-19T12:13:00.398Z,20.00
2023-04-19T12:14:13.493Z,20.24
2023-04-19T12:15:15.389Z,20.43
2023-04-19T12:16:28.043Z,19.58
2023-04-19T12:17:29.993Z,20.19
2023-04-19T12:18:51.249Z,19.98
2023-04-19T12:19:53.400Z,19.71
2023-04-19T12:20:55.379Z,20.29
2023-04-19T12:22:08.712Z,19.98
2023-04-19T12:23:16.449Z,20.13
2023-04-19T12:24:18.295Z,20.29
2023-04-19T12:25:20.269Z,19.74
2023-04-19T12:26:22.083Z,19.99
2023-04-19T12:27:25.719Z,20.09
2023-04-19T12:28:27.634Z,20.35
2023-04-19T12:29:29.554Z,19.88
2023-04-19T12:30:31.629Z,20.08
2023-04-19T12:31:33.798Z,20.00
2023-04-19T12:32:35.729Z,20.38
2023-04-19T12:33:37.500Z,19.62
2023-04-19T12:34:39.286Z,20.31
2023-04-19T12:35:41.244Z,19.74
2023-04-19T12:36:43.012Z,20.01
2023-04-19T12:37:44.844Z,19.82
2023-04-19T12:38:46.947Z,20.28
2023-04-19T12:39:48.746Z,19.86
2023-04-19T12:40:50.553Z,20.04
2023-04-19T12:41:52.333Z,20.03
2023-04-19T12:42:54.608Z,19.67
2023-04-19T12:43:56.642Z,20.47
2023-04-19T12:44:58.501Z,19.80
2023-04-19T12:46:00.491Z,20.26
2023-04-19T12:47:02.331Z,20.02
2023-04-19T12:48:04.266Z,20.14
2023-04-19T12:49:06.144Z,19.81
2023-04-19T12:50:08.977Z,20.08
2023-04-19T12:51:10.863Z,20.21
2023-04-19T12:52:12.680Z,20.28
2023-04-19T12:53:14.510Z,20.38
2023-04-19T12:54:16.655Z,20.27
2023-04-19T12:55:18.619Z,19.95
2023-04-19T12:56:21.331Z,20.49
2023-04-19T12:57:23.178Z,19.90
2023-04-19T12:58:25.198Z,19.93
2023-04-19T12:59:27.078Z,19.54
2023-04-19T13:00:30.285Z,20.18
2023-04-19T13:01:33.023Z,19.83
2023-04-19T13:02:35.286Z,20.00
2023-04-19T13:03:37.770Z,20.26
2023-04-19T13:04:40.111Z,19.88
2023-04-19T13:05:42.048Z,19.83
2023-04-19T13:06:43.827Z,20.17
2023-04-19T13:07:45.726Z,20.00
2023-04-19T13:08:48.079Z,19.67
2023-04-19T13:09:50.017Z,20.08
2023-04-19T13:10:51.885Z,20.21
2023-04-19T13:11:55.274Z,20.24
2023-04-19T13:12:59.075Z,20.28
2023-04-19T13:14:01.041Z,19.90
2023-04-19T13:15:04.389Z,19.84
2023-04-19T13:16:08.057Z,20.42
2023-04-19T13:17:10.088Z,20.27
2023-04-19T13:18:11.937Z,20.49
2023-04-19T13:19:13.729Z,20.28
2023-04-19T13:20:15.547Z,20.61
2023-04-19T13:21:17.428Z,20.66
2023-04-19T13:22:19.230Z,20.70
2023-04-19T13:23:21.654Z,20.26
2023-04-19T13:24:23.570Z,20.46
2023-04-19T13:25:25.434Z,20.27
2023-04-19T13:26:27.319Z,20.07
2023-04-19T13:27:29.171Z,20.53
2023-04-19T13:28:31.244Z,19.82
2023-04-19T13:29:33.144Z,19.98
2023-04-19T13:31:36.709Z,20.11
2023-04-19T13:32:38.619Z,19.97
2023-04-19T13:33:40.423Z,20.45
2023-04-19T13:34:42.311Z,20.23
2023-04-19T13:35:45.115Z,20.16
2023-04-19T13:36:47.265Z,19.98
2023-04-19T13:37:49.071Z,20.18
2023-04-19T13:38:50.907Z,20.56
2023-04-19T13:39:55.143Z,20.39
2023-04-19T13:41:00.993Z,20.07
2023-04-19T13:42:02.906Z,20.60
2023-04-19T13:43:04.716Z,19.99
2023-04-19T13:44:06.611Z,20.25
2023-04-19T13:45:09.907Z,20.41
2023-04-19T13:46:11.762Z,19.85
2023-04-19T13:47:13.630Z,20.16
2023-04-19T13:48:15.638Z,20.05
2023-04-19T13:50:20.971Z,19.84
2023-04-19T13:51:22.848Z,20.00
2023-04-19T13:52:24.660Z,20.65
2023-04-19T13:53:29.215Z,20.20
2023-04-19T13:54:31.113Z,20.11
2023-04-19T13:55:33.453Z,19.74
2023-04-19T13:56:35.652Z,20.62
2023-04-19T13:57:37.762Z,19.78